sensor_id;sensor_type;location;lat;lon;timestamp;temperature;humidity
34740;DHT22;20967;48.442;9.994;2023-06-04T00:02:25;12.30;99.90
34740;DHT22;20967;48.442;9.994;2023-06-04T00:04:53;12.20;99.90
34740;DHT22;20967;48.442;9.994;2023-06-04T00:07:21;12.20;99.90
34740;DHT22;20967;48.442;9.994;2023-06-04T00:09:48;12.10;99.90
34740;DHT22;20967;48.442;9.994;2023-06-04T00:12:16;12.20;99.90
34740;DHT22;20967;48.442;9.994;2023-06-04T00:14:44;12.10;99.90
34740;DHT22;20967;48.442;9.994;2023-06-04T00:17:12;12.00;99.90
34740;DHT22;20967;48.442;9.994;2023-06-04T00:19:40;12.10;99.90
34740;DHT22;20967;48.442;9.994;2023-06-04T00:22:08;12.10;99.90
34740;DHT22;20967;48.442;9.994;2023-06-04T00:24:38;12.10;99.90
34740;DHT22;20967;48.442;9.994;2023-06-04T00:27:09;12.10;99.90
34740;DHT22;20967;48.442;9.994;2023-06-04T00:29:36;12.10;99.90
34740;DHT22;20967;48.442;9.994;2023-06-04T00:32:04;12.00;99.90
34740;DHT22;20967;48.442;9.994;2023-06-04T00:34:32;11.90;99.90
34740;DHT22;20967;48.442;9.994;2023-06-04T00:37:00;11.80;99.90
34740;DHT22;20967;48.442;9.994;2023-06-04T00:39:30;11.90;99.90
34740;DHT22;20967;48.442;9.994;2023-06-04T00:41:58;11.70;99.90
34740;DHT22;20967;48.442;9.994;2023-06-04T00:44:26;11.80;99.90
34740;DHT22;20967;48.442;9.994;2023-06-04T00:46:54;11.80;99.90
34740;DHT22;20967;48.442;9.994;2023-06-04T00:49:21;11.80;99.90
34740;DHT22;20967;48.442;9.994;2023-06-04T00:51:50;11.70;99.90
34740;DHT22;20967;48.442;9.994;2023-06-04T00:54:17;11.60;99.90
34740;DHT22;20967;48.442;9.994;2023-06-04T00:56:47;11.70;99.90
34740;DHT22;20967;48.442;9.994;2023-06-04T00:59:15;11.60;99.90
34740;DHT22;20967;48.442;9.994;2023-06-04T01:02:00;11.60;99.90
34740;DHT22;20967;48.442;9.994;2023-06-04T01:07:05;11.60;99.90
34740;DHT22;20967;48.442;9.994;2023-06-04T01:09:34;11.40;99.90
34740;DHT22;20967;48.442;9.994;2023-06-04T01:12:06;11.50;99.90
34740;DHT22;20967;48.442;9.994;2023-06-04T01:14:34;11.50;99.90
34740;DHT22;20967;48.442;9.994;2023-06-04T01:22:33;11.30;99.90
34740;DHT22;20967;48.442;9.994;2023-06-04T01:25:04;11.30;99.90
34740;DHT22;20967;48.442;9.994;2023-06-04T01:27:30;11.30;99.90
34740;DHT22;20967;48.442;9.994;2023-06-04T01:29:59;11.30;99.90
34740;DHT22;20967;48.442;9.994;2023-06-04T01:32:27;11.20;99.90
34740;DHT22;20967;48.442;9.994;2023-06-04T01:34:56;11.20;99.90
34740;DHT22;20967;48.442;9.994;2023-06-04T01:37:23;11.10;99.90
34740;DHT22;20967;48.442;9.994;2023-06-04T01:39:53;11.10;99.90
34740;DHT22;20967;48.442;9.994;2023-06-04T01:42:21;11.10;99.90
34740;DHT22;20967;48.442;9.994;2023-06-04T01:44:48;11.00;99.90
34740;DHT22;20967;48.442;9.994;2023-06-04T01:47:16;11.00;99.90
34740;DHT22;20967;48.442;9.994;2023-06-04T01:49:44;11.00;99.90
34740;DHT22;20967;48.442;9.994;2023-06-04T01:52:12;11.00;99.90
34740;DHT22;20967;48.442;9.994;2023-06-04T01:54:39;11.00;99.90
34740;DHT22;20967;48.442;9.994;2023-06-04T01:57:07;11.00;99.90
34740;DHT22;20967;48.442;9.994;2023-06-04T01:59:36;11.10;99.90
34740;DHT22;20967;48.442;9.994;2023-06-04T02:02:05;11.00;99.90
34740;DHT22;20967;48.442;9.994;2023-06-04T02:04:33;11.10;99.90
34740;DHT22;20967;48.442;9.994;2023-06-04T02:07:03;11.00;99.90
34740;DHT22;20967;48.442;9.994;2023-06-04T02:09:30;10.80;99.90
34740;DHT22;20967;48.442;9.994;2023-06-04T02:11:58;10.90;99.90
34740;DHT22;20967;48.442;9.994;2023-06-04T02:14:31;10.90;99.90
34740;DHT22;20967;48.442;9.994;2023-06-04T02:16:56;10.90;99.90
34740;DHT22;20967;48.442;9.994;2023-06-04T02:19:24;10.80;99.90
34740;DHT22;20967;48.442;9.994;2023-06-04T02:21:55;10.70;99.90
34740;DHT22;20967;48.442;9.994;2023-06-04T02:24:23;10.80;99.90
34740;DHT22;20967;48.442;9.994;2023-06-04T02:26:51;10.70;99.90
34740;DHT22;20967;48.442;9.994;2023-06-04T02:29:19;10.80;99.90
34740;DHT22;20967;48.442;9.994;2023-06-04T02:31:46;10.80;99.90
34740;DHT22;20967;48.442;9.994;2023-06-04T02:34:14;10.70;99.90
34740;DHT22;20967;48.442;9.994;2023-06-04T02:36:42;10.80;99.90
34740;DHT22;20967;48.442;9.994;2023-06-04T02:39:11;10.70;99.90
34740;DHT22;20967;48.442;9.994;2023-06-04T02:41:39;10.60;99.90
34740;DHT22;20967;48.442;9.994;2023-06-04T02:44:07;10.60;99.90
34740;DHT22;20967;48.442;9.994;2023-06-04T02:46:34;10.70;99.90
34740;DHT22;20967;48.442;9.994;2023-06-04T02:49:02;10.60;99.90
34740;DHT22;20967;48.442;9.994;2023-06-04T02:51:30;10.50;99.90
34740;DHT22;20967;48.442;9.994;2023-06-04T02:53:59;10.50;99.90
34740;DHT22;20967;48.442;9.994;2023-06-04T02:56:27;10.60;99.90
34740;DHT22;20967;48.442;9.994;2023-06-04T02:58:55;10.60;99.90
34740;DHT22;20967;48.442;9.994;2023-06-04T03:01:23;10.50;99.90
34740;DHT22;20967;48.442;9.994;2023-06-04T03:03:53;10.50;99.90
34740;DHT22;20967;48.442;9.994;2023-06-04T03:06:23;10.40;99.90
34740;DHT22;20967;48.442;9.994;2023-06-04T03:08:51;10.30;99.90
34740;DHT22;20967;48.442;9.994;2023-06-04T03:11:19;10.20;99.90
34740;DHT22;20967;48.442;9.994;2023-06-04T03:13:50;10.40;99.90
34740;DHT22;20967;48.442;9.994;2023-06-04T03:16:19;10.30;99.90
34740;DHT22;20967;48.442;9.994;2023-06-04T03:18:47;10.30;99.90
34740;DHT22;20967;48.442;9.994;2023-06-04T03:21:15;10.20;99.90
34740;DHT22;20967;48.442;9.994;2023-06-04T03:23:43;10.40;99.90
34740;DHT22;20967;48.442;9.994;2023-06-04T03:26:11;10.40;99.90
34740;DHT22;20967;48.442;9.994;2023-06-04T03:28:39;10.40;99.90
34740;DHT22;20967;48.442;9.994;2023-06-04T03:31:07;10.30;99.90
34740;DHT22;20967;48.442;9.994;2023-06-04T03:33:35;10.30;99.90
34740;DHT22;20967;48.442;9.994;2023-06-04T03:36:03;10.30;99.90
34740;DHT22;20967;48.442;9.994;2023-06-04T03:38:30;10.30;99.90
34740;DHT22;20967;48.442;9.994;2023-06-04T03:40:58;10.30;99.90
34740;DHT22;20967;48.442;9.994;2023-06-04T03:43:26;10.20;99.90
34740;DHT22;20967;48.442;9.994;2023-06-04T03:45:54;10.40;99.90
34740;DHT22;20967;48.442;9.994;2023-06-04T03:48:21;10.70;99.90
34740;DHT22;20967;48.442;9.994;2023-06-04T03:50:49;11.10;99.90
34740;DHT22;20967;48.442;9.994;2023-06-04T03:53:17;11.50;99.90
34740;DHT22;20967;48.442;9.994;2023-06-04T03:55:45;11.70;99.90
34740;DHT22;20967;48.442;9.994;2023-06-04T03:58:13;12.10;99.90
34740;DHT22;20967;48.442;9.994;2023-06-04T04:00:41;12.20;99.90
34740;DHT22;20967;48.442;9.994;2023-06-04T04:03:09;12.60;99.90
34740;DHT22;20967;48.442;9.994;2023-06-04T04:05:37;12.70;99.90
34740;DHT22;20967;48.442;9.994;2023-06-04T04:08:04;13.20;99.90
34740;DHT22;20967;48.442;9.994;2023-06-04T04:10:32;13.30;99.90
34740;DHT22;20967;48.442;9.994;2023-06-04T04:13:00;13.80;99.90
34740;DHT22;20967;48.442;9.994;2023-06-04T04:15:28;13.90;99.90
34740;DHT22;20967;48.442;9.994;2023-06-04T04:17:56;14.40;99.90
34740;DHT22;20967;48.442;9.994;2023-06-04T04:20:23;14.50;99.90
34740;DHT22;20967;48.442;9.994;2023-06-04T04:22:52;14.80;99.90
34740;DHT22;20967;48.442;9.994;2023-06-04T04:25:20;15.00;99.90
34740;DHT22;20967;48.442;9.994;2023-06-04T04:27:48;15.30;99.90
34740;DHT22;20967;48.442;9.994;2023-06-04T04:30:15;15.50;99.90
34740;DHT22;20967;48.442;9.994;2023-06-04T04:32:44;15.60;99.90
34740;DHT22;20967;48.442;9.994;2023-06-04T04:35:14;15.50;99.90
34740;DHT22;20967;48.442;9.994;2023-06-04T04:37:48;16.00;99.90
34740;DHT22;20967;48.442;9.994;2023-06-04T04:40:13;15.90;99.90
34740;DHT22;20967;48.442;9.994;2023-06-04T04:42:41;16.30;99.90
34740;DHT22;20967;48.442;9.994;2023-06-04T04:45:10;16.40;99.90
34740;DHT22;20967;48.442;9.994;2023-06-04T04:47:38;16.30;99.90
34740;DHT22;20967;48.442;9.994;2023-06-04T04:50:06;16.30;99.90
34740;DHT22;20967;48.442;9.994;2023-06-04T04:52:34;16.30;99.90
34740;DHT22;20967;48.442;9.994;2023-06-04T04:55:02;16.40;99.90
34740;DHT22;20967;48.442;9.994;2023-06-04T04:57:30;16.40;99.90
34740;DHT22;20967;48.442;9.994;2023-06-04T04:59:58;16.70;99.90
34740;DHT22;20967;48.442;9.994;2023-06-04T05:02:26;16.80;99.90
34740;DHT22;20967;48.442;9.994;2023-06-04T05:04:54;16.80;99.90
34740;DHT22;20967;48.442;9.994;2023-06-04T05:07:21;16.70;99.90
34740;DHT22;20967;48.442;9.994;2023-06-04T05:09:51;16.60;99.90
34740;DHT22;20967;48.442;9.994;2023-06-04T05:12:19;16.90;99.90
34740;DHT22;20967;48.442;9.994;2023-06-04T05:14:47;17.10;99.90
34740;DHT22;20967;48.442;9.994;2023-06-04T05:17:14;17.30;99.90
34740;DHT22;20967;48.442;9.994;2023-06-04T05:19:43;17.10;99.90
34740;DHT22;20967;48.442;9.994;2023-06-04T05:22:11;16.40;99.90
34740;DHT22;20967;48.442;9.994;2023-06-04T05:24:39;16.60;99.90
34740;DHT22;20967;48.442;9.994;2023-06-04T05:27:09;17.00;99.90
34740;DHT22;20967;48.442;9.994;2023-06-04T05:29:36;16.90;99.90
34740;DHT22;20967;48.442;9.994;2023-06-04T05:32:04;16.80;99.90
34740;DHT22;20967;48.442;9.994;2023-06-04T05:34:32;17.50;99.90
34740;DHT22;20967;48.442;9.994;2023-06-04T05:37:01;17.30;99.90
34740;DHT22;20967;48.442;9.994;2023-06-04T05:39:31;17.20;99.90
34740;DHT22;20967;48.442;9.994;2023-06-04T05:41:59;18.00;99.90
34740;DHT22;20967;48.442;9.994;2023-06-04T05:44:27;17.70;99.90
34740;DHT22;20967;48.442;9.994;2023-06-04T05:46:54;17.40;99.90
34740;DHT22;20967;48.442;9.994;2023-06-04T05:49:22;18.60;99.90
34740;DHT22;20967;48.442;9.994;2023-06-04T05:51:51;18.30;99.90
34740;DHT22;20967;48.442;9.994;2023-06-04T05:54:19;18.20;99.90
34740;DHT22;20967;48.442;9.994;2023-06-04T05:56:47;17.90;99.90
34740;DHT22;20967;48.442;9.994;2023-06-04T05:59:15;18.10;99.90
34740;DHT22;20967;48.442;9.994;2023-06-04T06:01:43;18.30;99.90
34740;DHT22;20967;48.442;9.994;2023-06-04T06:04:10;17.90;99.90
34740;DHT22;20967;48.442;9.994;2023-06-04T06:06:39;17.70;99.90
34740;DHT22;20967;48.442;9.994;2023-06-04T06:09:08;18.20;99.90
34740;DHT22;20967;48.442;9.994;2023-06-04T06:11:37;18.50;99.90
34740;DHT22;20967;48.442;9.994;2023-06-04T06:14:04;17.80;99.90
34740;DHT22;20967;48.442;9.994;2023-06-04T06:16:32;17.20;99.90
34740;DHT22;20967;48.442;9.994;2023-06-04T06:19:00;16.90;99.90
34740;DHT22;20967;48.442;9.994;2023-06-04T06:21:28;16.90;99.90
34740;DHT22;20967;48.442;9.994;2023-06-04T06:23:56;16.60;99.90
34740;DHT22;20967;48.442;9.994;2023-06-04T06:26:24;16.10;99.90
34740;DHT22;20967;48.442;9.994;2023-06-04T06:28:51;16.10;99.90
34740;DHT22;20967;48.442;9.994;2023-06-04T06:31:19;15.90;99.90
34740;DHT22;20967;48.442;9.994;2023-06-04T06:33:47;16.30;99.90
34740;DHT22;20967;48.442;9.994;2023-06-04T06:36:15;16.60;99.90
34740;DHT22;20967;48.442;9.994;2023-06-04T06:38:45;16.20;99.90
34740;DHT22;20967;48.442;9.994;2023-06-04T06:41:13;16.20;99.90
34740;DHT22;20967;48.442;9.994;2023-06-04T06:43:41;16.10;99.90
34740;DHT22;20967;48.442;9.994;2023-06-04T06:46:08;15.90;99.90
34740;DHT22;20967;48.442;9.994;2023-06-04T06:48:36;15.90;99.90
34740;DHT22;20967;48.442;9.994;2023-06-04T06:51:04;15.80;99.90
34740;DHT22;20967;48.442;9.994;2023-06-04T06:53:32;16.00;99.90
34740;DHT22;20967;48.442;9.994;2023-06-04T06:56:00;16.00;99.90
34740;DHT22;20967;48.442;9.994;2023-06-04T06:58:27;16.10;99.90
34740;DHT22;20967;48.442;9.994;2023-06-04T07:00:55;16.20;99.90
34740;DHT22;20967;48.442;9.994;2023-06-04T07:03:23;16.20;99.90
34740;DHT22;20967;48.442;9.994;2023-06-04T07:05:51;15.90;99.90
34740;DHT22;20967;48.442;9.994;2023-06-04T07:08:18;16.50;99.90
34740;DHT22;20967;48.442;9.994;2023-06-04T07:10:47;16.30;99.90
34740;DHT22;20967;48.442;9.994;2023-06-04T07:13:17;16.20;99.90
34740;DHT22;20967;48.442;9.994;2023-06-04T07:15:45;16.10;99.90
34740;DHT22;20967;48.442;9.994;2023-06-04T07:18:13;16.10;99.90
34740;DHT22;20967;48.442;9.994;2023-06-04T07:20:40;16.10;99.90
34740;DHT22;20967;48.442;9.994;2023-06-04T07:23:08;16.30;99.90
34740;DHT22;20967;48.442;9.994;2023-06-04T07:25:36;16.30;99.90
34740;DHT22;20967;48.442;9.994;2023-06-04T07:28:04;16.50;99.90
34740;DHT22;20967;48.442;9.994;2023-06-04T07:30:32;16.70;99.90
34740;DHT22;20967;48.442;9.994;2023-06-04T07:33:00;16.40;99.90
34740;DHT22;20967;48.442;9.994;2023-06-04T07:35:27;16.20;99.90
34740;DHT22;20967;48.442;9.994;2023-06-04T07:37:55;16.20;99.90
34740;DHT22;20967;48.442;9.994;2023-06-04T07:40:23;16.20;99.90
34740;DHT22;20967;48.442;9.994;2023-06-04T07:42:51;16.20;99.90
34740;DHT22;20967;48.442;9.994;2023-06-04T07:45:18;16.30;99.90
34740;DHT22;20967;48.442;9.994;2023-06-04T07:47:46;16.30;99.90
34740;DHT22;20967;48.442;9.994;2023-06-04T07:50:14;16.40;99.90
34740;DHT22;20967;48.442;9.994;2023-06-04T07:52:42;16.60;99.90
34740;DHT22;20967;48.442;9.994;2023-06-04T07:55:10;16.80;99.90
34740;DHT22;20967;48.442;9.994;2023-06-04T07:57:38;17.10;99.90
34740;DHT22;20967;48.442;9.994;2023-06-04T08:00:06;17.10;99.90
34740;DHT22;20967;48.442;9.994;2023-06-04T08:02:34;17.00;99.90
34740;DHT22;20967;48.442;9.994;2023-06-04T08:05:02;17.10;99.90
34740;DHT22;20967;48.442;9.994;2023-06-04T08:07:30;16.80;99.90
34740;DHT22;20967;48.442;9.994;2023-06-04T08:09:58;16.90;99.90
34740;DHT22;20967;48.442;9.994;2023-06-04T08:12:26;16.80;99.90
34740;DHT22;20967;48.442;9.994;2023-06-04T08:14:53;16.80;99.90
34740;DHT22;20967;48.442;9.994;2023-06-04T08:17:23;16.90;99.90
34740;DHT22;20967;48.442;9.994;2023-06-04T08:19:51;17.10;99.90
34740;DHT22;20967;48.442;9.994;2023-06-04T08:22:18;17.00;99.90
34740;DHT22;20967;48.442;9.994;2023-06-04T08:24:46;17.10;99.90
34740;DHT22;20967;48.442;9.994;2023-06-04T08:27:14;17.10;99.90
34740;DHT22;20967;48.442;9.994;2023-06-04T08:29:44;17.20;99.90
34740;DHT22;20967;48.442;9.994;2023-06-04T08:32:11;17.30;99.90
34740;DHT22;20967;48.442;9.994;2023-06-04T08:34:39;17.30;99.90
34740;DHT22;20967;48.442;9.994;2023-06-04T08:37:07;17.10;99.90
34740;DHT22;20967;48.442;9.994;2023-06-04T08:39:35;17.30;99.90
34740;DHT22;20967;48.442;9.994;2023-06-04T08:42:07;17.40;99.90
34740;DHT22;20967;48.442;9.994;2023-06-04T08:44:36;17.30;99.90
34740;DHT22;20967;48.442;9.994;2023-06-04T08:47:05;17.50;99.90
34740;DHT22;20967;48.442;9.994;2023-06-04T08:49:35;18.00;99.90
34740;DHT22;20967;48.442;9.994;2023-06-04T08:52:04;18.00;99.90
34740;DHT22;20967;48.442;9.994;2023-06-04T08:54:33;17.90;99.90
34740;DHT22;20967;48.442;9.994;2023-06-04T08:57:01;18.10;99.90
34740;DHT22;20967;48.442;9.994;2023-06-04T08:59:29;18.20;99.90
34740;DHT22;20967;48.442;9.994;2023-06-04T09:01:59;18.10;99.90
34740;DHT22;20967;48.442;9.994;2023-06-04T09:04:27;18.10;99.90
34740;DHT22;20967;48.442;9.994;2023-06-04T09:06:55;18.10;99.90
34740;DHT22;20967;48.442;9.994;2023-06-04T09:09:25;18.50;99.90
34740;DHT22;20967;48.442;9.994;2023-06-04T09:11:55;18.90;99.90
34740;DHT22;20967;48.442;9.994;2023-06-04T09:14:24;18.70;99.90
34740;DHT22;20967;48.442;9.994;2023-06-04T09:16:53;18.60;99.90
34740;DHT22;20967;48.442;9.994;2023-06-04T09:19:22;18.70;99.90
34740;DHT22;20967;48.442;9.994;2023-06-04T09:21:55;18.80;99.90
34740;DHT22;20967;48.442;9.994;2023-06-04T09:24:26;18.80;99.90
34740;DHT22;20967;48.442;9.994;2023-06-04T09:26:54;18.90;99.90
34740;DHT22;20967;48.442;9.994;2023-06-04T09:29:22;18.90;99.90
34740;DHT22;20967;48.442;9.994;2023-06-04T09:31:58;18.70;99.90
34740;DHT22;20967;48.442;9.994;2023-06-04T09:34:29;18.80;99.90
34740;DHT22;20967;48.442;9.994;2023-06-04T09:36:57;18.80;99.90
34740;DHT22;20967;48.442;9.994;2023-06-04T09:39:26;19.10;99.90
34740;DHT22;20967;48.442;9.994;2023-06-04T09:42:01;18.90;99.90
34740;DHT22;20967;48.442;9.994;2023-06-04T09:44:29;19.00;99.90
34740;DHT22;20967;48.442;9.994;2023-06-04T09:46:57;19.00;99.90
34740;DHT22;20967;48.442;9.994;2023-06-04T09:49:25;18.80;99.90
34740;DHT22;20967;48.442;9.994;2023-06-04T09:51:53;19.00;99.90
34740;DHT22;20967;48.442;9.994;2023-06-04T09:54:21;19.10;99.90
34740;DHT22;20967;48.442;9.994;2023-06-04T09:56:49;19.50;99.90
34740;DHT22;20967;48.442;9.994;2023-06-04T09:59:17;19.30;99.90
34740;DHT22;20967;48.442;9.994;2023-06-04T10:01:45;19.50;99.90
34740;DHT22;20967;48.442;9.994;2023-06-04T10:04:13;19.30;99.90
34740;DHT22;20967;48.442;9.994;2023-06-04T10:06:43;19.10;99.90
34740;DHT22;20967;48.442;9.994;2023-06-04T10:09:12;19.10;99.90
34740;DHT22;20967;48.442;9.994;2023-06-04T10:11:44;19.30;99.90
34740;DHT22;20967;48.442;9.994;2023-06-04T10:14:30;19.10;99.90
34740;DHT22;20967;48.442;9.994;2023-06-04T10:16:54;19.20;99.90
34740;DHT22;20967;48.442;9.994;2023-06-04T10:19:24;19.40;99.90
34740;DHT22;20967;48.442;9.994;2023-06-04T10:21:56;19.20;99.90
34740;DHT22;20967;48.442;9.994;2023-06-04T10:24:24;19.20;99.90
34740;DHT22;20967;48.442;9.994;2023-06-04T10:26:57;19.50;99.90
34740;DHT22;20967;48.442;9.994;2023-06-04T10:29:25;19.50;99.90
34740;DHT22;20967;48.442;9.994;2023-06-04T10:31:54;19.80;99.90
34740;DHT22;20967;48.442;9.994;2023-06-04T10:34:22;19.70;99.90
34740;DHT22;20967;48.442;9.994;2023-06-04T10:36:50;19.70;99.90
34740;DHT22;20967;48.442;9.994;2023-06-04T10:39:28;19.60;99.90
34740;DHT22;20967;48.442;9.994;2023-06-04T10:41:59;20.10;99.90
34740;DHT22;20967;48.442;9.994;2023-06-04T10:44:25;20.00;99.90
34740;DHT22;20967;48.442;9.994;2023-06-04T10:46:53;20.30;99.90
34740;DHT22;20967;48.442;9.994;2023-06-04T10:49:27;20.30;99.90
34740;DHT22;20967;48.442;9.994;2023-06-04T10:51:55;20.30;99.90
34740;DHT22;20967;48.442;9.994;2023-06-04T10:54:29;20.00;99.90
34740;DHT22;20967;48.442;9.994;2023-06-04T10:56:59;19.90;99.90
34740;DHT22;20967;48.442;9.994;2023-06-04T10:59:28;20.10;99.90
34740;DHT22;20967;48.442;9.994;2023-06-04T11:02:06;19.90;99.90
34740;DHT22;20967;48.442;9.994;2023-06-04T11:04:34;19.90;99.90
34740;DHT22;20967;48.442;9.994;2023-06-04T11:07:06;20.10;99.90
34740;DHT22;20967;48.442;9.994;2023-06-04T11:09:37;20.40;99.90
34740;DHT22;20967;48.442;9.994;2023-06-04T11:12:06;20.40;99.90
34740;DHT22;20967;48.442;9.994;2023-06-04T11:14:34;20.50;99.90
34740;DHT22;20967;48.442;9.994;2023-06-04T11:17:10;20.40;99.90
34740;DHT22;20967;48.442;9.994;2023-06-04T11:19:37;20.50;99.90
34740;DHT22;20967;48.442;9.994;2023-06-04T11:22:05;20.80;99.90
34740;DHT22;20967;48.442;9.994;2023-06-04T11:24:33;20.70;99.90
34740;DHT22;20967;48.442;9.994;2023-06-04T11:27:01;20.80;99.90
34740;DHT22;20967;48.442;9.994;2023-06-04T11:29:29;20.70;99.90
34740;DHT22;20967;48.442;9.994;2023-06-04T11:31:57;21.40;99.90
34740;DHT22;20967;48.442;9.994;2023-06-04T11:34:29;21.60;99.90
34740;DHT22;20967;48.442;9.994;2023-06-04T11:37:08;21.40;99.90
34740;DHT22;20967;48.442;9.994;2023-06-04T11:39:36;21.00;99.90
34740;DHT22;20967;48.442;9.994;2023-06-04T11:42:06;21.00;99.90
34740;DHT22;20967;48.442;9.994;2023-06-04T11:44:34;21.20;99.90
34740;DHT22;20967;48.442;9.994;2023-06-04T11:47:07;21.20;99.90
34740;DHT22;20967;48.442;9.994;2023-06-04T11:49:36;21.60;99.90
34740;DHT22;20967;48.442;9.994;2023-06-04T11:52:04;21.40;99.90
34740;DHT22;20967;48.442;9.994;2023-06-04T11:54:32;21.20;99.90
34740;DHT22;20967;48.442;9.994;2023-06-04T11:57:02;21.30;99.90
34740;DHT22;20967;48.442;9.994;2023-06-04T11:59:31;21.80;99.90
34740;DHT22;20967;48.442;9.994;2023-06-04T12:01:59;21.80;99.90
34740;DHT22;20967;48.442;9.994;2023-06-04T12:04:29;21.40;99.90
34740;DHT22;20967;48.442;9.994;2023-06-04T12:07:00;21.70;99.90
34740;DHT22;20967;48.442;9.994;2023-06-04T12:09:31;21.70;99.90
34740;DHT22;20967;48.442;9.994;2023-06-04T12:12:04;21.40;99.90
34740;DHT22;20967;48.442;9.994;2023-06-04T12:14:32;21.40;99.90
34740;DHT22;20967;48.442;9.994;2023-06-04T12:17:10;21.70;99.90
34740;DHT22;20967;48.442;9.994;2023-06-04T12:19:46;21.40;99.90
34740;DHT22;20967;48.442;9.994;2023-06-04T12:22:16;21.10;99.90
34740;DHT22;20967;48.442;9.994;2023-06-04T12:24:52;21.60;99.90
34740;DHT22;20967;48.442;9.994;2023-06-04T12:27:20;21.60;99.90
34740;DHT22;20967;48.442;9.994;2023-06-04T12:30:03;21.50;99.90
34740;DHT22;20967;48.442;9.994;2023-06-04T12:32:30;21.80;99.90
34740;DHT22;20967;48.442;9.994;2023-06-04T12:34:58;21.80;99.90
34740;DHT22;20967;48.442;9.994;2023-06-04T12:37:25;22.00;99.90
34740;DHT22;20967;48.442;9.994;2023-06-04T12:39:54;22.40;99.90
34740;DHT22;20967;48.442;9.994;2023-06-04T12:42:22;22.60;99.90
34740;DHT22;20967;48.442;9.994;2023-06-04T12:44:50;21.70;99.90
34740;DHT22;20967;48.442;9.994;2023-06-04T12:47:18;21.80;99.90
34740;DHT22;20967;48.442;9.994;2023-06-04T12:49:47;21.50;99.90
34740;DHT22;20967;48.442;9.994;2023-06-04T12:52:17;21.30;99.90
34740;DHT22;20967;48.442;9.994;2023-06-04T12:54:45;21.40;99.90
34740;DHT22;20967;48.442;9.994;2023-06-04T12:57:14;21.50;99.90
34740;DHT22;20967;48.442;9.994;2023-06-04T12:59:42;21.80;99.90
34740;DHT22;20967;48.442;9.994;2023-06-04T13:02:11;21.80;99.90
34740;DHT22;20967;48.442;9.994;2023-06-04T13:04:39;21.90;99.90
34740;DHT22;20967;48.442;9.994;2023-06-04T13:07:09;21.70;99.90
34740;DHT22;20967;48.442;9.994;2023-06-04T13:09:36;21.90;99.90
34740;DHT22;20967;48.442;9.994;2023-06-04T13:12:04;21.90;99.90
34740;DHT22;20967;48.442;9.994;2023-06-04T13:14:32;21.90;99.90
34740;DHT22;20967;48.442;9.994;2023-06-04T13:17:00;22.10;99.90
34740;DHT22;20967;48.442;9.994;2023-06-04T13:19:28;21.60;99.90
34740;DHT22;20967;48.442;9.994;2023-06-04T13:21:56;21.90;99.90
34740;DHT22;20967;48.442;9.994;2023-06-04T13:24:24;22.10;99.90
34740;DHT22;20967;48.442;9.994;2023-06-04T13:26:52;22.30;99.90
34740;DHT22;20967;48.442;9.994;2023-06-04T13:29:20;21.60;99.90
34740;DHT22;20967;48.442;9.994;2023-06-04T13:31:50;21.20;99.90
34740;DHT22;20967;48.442;9.994;2023-06-04T13:34:19;21.50;99.90
34740;DHT22;20967;48.442;9.994;2023-06-04T13:36:47;21.70;99.90
34740;DHT22;20967;48.442;9.994;2023-06-04T13:39:15;21.90;99.90
34740;DHT22;20967;48.442;9.994;2023-06-04T13:41:42;21.70;99.90
34740;DHT22;20967;48.442;9.994;2023-06-04T13:44:10;21.80;99.90
34740;DHT22;20967;48.442;9.994;2023-06-04T13:46:38;21.60;99.90
34740;DHT22;20967;48.442;9.994;2023-06-04T13:49:07;21.50;99.90
34740;DHT22;20967;48.442;9.994;2023-06-04T13:51:35;21.60;99.90
34740;DHT22;20967;48.442;9.994;2023-06-04T13:54:03;21.50;99.90
34740;DHT22;20967;48.442;9.994;2023-06-04T13:56:31;21.90;99.90
34740;DHT22;20967;48.442;9.994;2023-06-04T13:58:58;22.20;99.90
34740;DHT22;20967;48.442;9.994;2023-06-04T14:01:26;22.10;99.90
34740;DHT22;20967;48.442;9.994;2023-06-04T14:03:54;22.30;99.90
34740;DHT22;20967;48.442;9.994;2023-06-04T14:06:22;22.20;99.90
34740;DHT22;20967;48.442;9.994;2023-06-04T14:08:49;22.50;99.90
34740;DHT22;20967;48.442;9.994;2023-06-04T14:11:17;22.60;99.90
34740;DHT22;20967;48.442;9.994;2023-06-04T14:13:45;22.20;99.90
34740;DHT22;20967;48.442;9.994;2023-06-04T14:16:13;21.70;99.90
34740;DHT22;20967;48.442;9.994;2023-06-04T14:18:41;21.70;99.90
34740;DHT22;20967;48.442;9.994;2023-06-04T14:21:09;21.70;99.90
34740;DHT22;20967;48.442;9.994;2023-06-04T14:23:37;21.70;99.90
34740;DHT22;20967;48.442;9.994;2023-06-04T14:26:04;21.70;99.90
34740;DHT22;20967;48.442;9.994;2023-06-04T14:28:32;21.90;99.90
34740;DHT22;20967;48.442;9.994;2023-06-04T14:31:00;21.80;99.90
34740;DHT22;20967;48.442;9.994;2023-06-04T14:33:27;21.50;99.90
34740;DHT22;20967;48.442;9.994;2023-06-04T14:35:55;21.60;99.90
34740;DHT22;20967;48.442;9.994;2023-06-04T14:38:23;21.70;99.90
34740;DHT22;20967;48.442;9.994;2023-06-04T14:40:51;22.00;99.90
34740;DHT22;20967;48.442;9.994;2023-06-04T14:43:19;21.90;99.90
34740;DHT22;20967;48.442;9.994;2023-06-04T14:45:46;21.70;99.90
34740;DHT22;20967;48.442;9.994;2023-06-04T14:48:14;21.60;99.90
34740;DHT22;20967;48.442;9.994;2023-06-04T14:50:43;21.50;99.90
34740;DHT22;20967;48.442;9.994;2023-06-04T14:53:11;21.40;99.90
34740;DHT22;20967;48.442;9.994;2023-06-04T14:55:39;21.60;99.90
34740;DHT22;20967;48.442;9.994;2023-06-04T14:58:07;21.80;99.90
34740;DHT22;20967;48.442;9.994;2023-06-04T15:00:35;21.80;99.90
34740;DHT22;20967;48.442;9.994;2023-06-04T15:03:02;21.90;99.90
34740;DHT22;20967;48.442;9.994;2023-06-04T15:05:32;21.80;99.90
34740;DHT22;20967;48.442;9.994;2023-06-04T15:08:00;21.60;99.90
34740;DHT22;20967;48.442;9.994;2023-06-04T15:10:28;21.50;99.90
34740;DHT22;20967;48.442;9.994;2023-06-04T15:12:56;21.40;99.90
34740;DHT22;20967;48.442;9.994;2023-06-04T15:15:25;21.90;99.90
34740;DHT22;20967;48.442;9.994;2023-06-04T15:17:52;21.90;99.90
34740;DHT22;20967;48.442;9.994;2023-06-04T15:20:20;21.60;99.90
34740;DHT22;20967;48.442;9.994;2023-06-04T15:22:50;21.60;99.90
34740;DHT22;20967;48.442;9.994;2023-06-04T15:25:17;21.60;99.90
34740;DHT22;20967;48.442;9.994;2023-06-04T15:27:45;21.60;99.90
34740;DHT22;20967;48.442;9.994;2023-06-04T15:30:13;21.70;99.90
34740;DHT22;20967;48.442;9.994;2023-06-04T15:32:41;21.70;99.90
34740;DHT22;20967;48.442;9.994;2023-06-04T15:35:09;21.60;99.90
34740;DHT22;20967;48.442;9.994;2023-06-04T15:37:37;21.90;99.90
34740;DHT22;20967;48.442;9.994;2023-06-04T15:40:05;21.60;99.90
34740;DHT22;20967;48.442;9.994;2023-06-04T15:42:34;21.60;99.90
34740;DHT22;20967;48.442;9.994;2023-06-04T15:45:02;21.90;99.90
34740;DHT22;20967;48.442;9.994;2023-06-04T15:47:30;21.80;99.90